createdAt,value
2018-12-17T00:00:46.707Z,88.53
2018-12-17T00:03:14.290Z,93.27
2018-12-17T00:05:42.076Z,98.77
2018-12-17T00:08:09.647Z,90.97
2018-12-17T00:10:37.179Z,98.77
2018-12-17T00:13:04.732Z,96.73
2018-12-17T00:15:32.292Z,88.70
2018-12-17T00:17:59.986Z,92.37
2018-12-17T00:20:27.433Z,93.20
2018-12-17T00:22:54.940Z,93.43
2018-12-17T00:25:23.162Z,100.17
2018-12-17T00:27:50.636Z,111.37
2018-12-17T00:30:18.112Z,93.70
2018-12-17T00:32:45.592Z,100.87
2018-12-17T00:35:13.152Z,92.50
2018-12-17T00:37:40.655Z,91.43
2018-12-17T00:40:09.120Z,87.53
2018-12-17T00:42:36.611Z,106.77
2018-12-17T00:45:05.379Z,93.97
2018-12-17T00:47:32.917Z,100.60
2018-12-17T00:50:00.387Z,100.23
2018-12-17T00:52:27.937Z,102.00
2018-12-17T00:54:55.493Z,98.60
2018-12-17T00:57:22.989Z,101.10
2018-12-17T00:59:50.508Z,103.17
2018-12-17T01:02:17.998Z,93.80
2018-12-17T01:04:45.477Z,110.63
2018-12-17T01:07:12.980Z,97.10
2018-12-17T01:09:40.579Z,102.60
2018-12-17T01:12:08.309Z,107.90
2018-12-17T01:14:35.848Z,113.20
2018-12-17T01:17:03.504Z,94.90
2018-12-17T01:19:31.061Z,104.27
2018-12-17T01:21:58.554Z,102.67
2018-12-17T01:24:26.041Z,119.90
2018-12-17T01:26:53.545Z,101.53
2018-12-17T01:29:21.036Z,117.07
2018-12-17T01:31:49.161Z,99.57
2018-12-17T01:34:16.675Z,112.93
2018-12-17T01:36:45.022Z,109.77
2018-12-17T01:39:12.509Z,96.10
2018-12-17T01:41:39.991Z,114.10
2018-12-17T01:44:07.579Z,125.53
2018-12-17T01:46:35.056Z,108.40
2018-12-17T01:49:02.538Z,110.03
2018-12-17T01:51:30.214Z,102.00
2018-12-17T01:53:57.718Z,106.77
2018-12-17T01:56:26.008Z,111.00
2018-12-17T01:58:53.570Z,108.10
2018-12-17T02:01:21.037Z,96.73
2018-12-17T02:03:48.527Z,111.50
2018-12-17T02:06:16.023Z,95.27
2018-12-17T02:08:43.511Z,91.30
2018-12-17T02:11:11.001Z,99.50
2018-12-17T02:13:38.730Z,88.57
2018-12-17T02:16:06.622Z,96.53
2018-12-17T02:18:34.131Z,98.93
2018-12-17T02:21:01.917Z,91.77
2018-12-17T02:23:29.410Z,92.23
2018-12-17T02:25:57.146Z,93.97
2018-12-17T02:28:24.622Z,82.00
2018-12-17T02:30:52.114Z,81.20
2018-12-17T02:33:19.686Z,76.07
2018-12-17T02:35:47.258Z,85.40
2018-12-17T02:38:14.728Z,80.23
2018-12-17T02:40:42.223Z,76.70
2018-12-17T02:43:10.208Z,75.67
2018-12-17T02:45:37.695Z,74.20
2018-12-17T02:48:05.175Z,71.13
2018-12-17T02:50:32.679Z,76.90
2018-12-17T02:53:00.152Z,76.90
2018-12-17T02:55:27.655Z,77.23
2018-12-17T02:57:55.126Z,71.03
2018-12-17T03:00:22.638Z,72.13
2018-12-17T03:02:51.114Z,76.97
2018-12-17T03:05:18.610Z,77.57
2018-12-17T03:07:46.086Z,67.27
2018-12-17T03:10:13.573Z,82.17
2018-12-17T03:12:41.060Z,86.07
2018-12-17T03:15:08.619Z,96.27
2018-12-17T03:17:36.189Z,95.87
2018-12-17T03:20:04.124Z,98.40
2018-12-17T03:22:31.599Z,103.30
2018-12-17T03:24:59.784Z,106.30
2018-12-17T03:27:28.135Z,120.57
2018-12-17T03:29:55.617Z,100.27
2018-12-17T03:32:23.173Z,115.90
2018-12-17T03:34:50.708Z,117.97
2018-12-17T03:37:18.374Z,123.17
2018-12-17T03:39:45.956Z,108.97
2018-12-17T03:42:13.524Z,118.90
2018-12-17T03:44:41.380Z,119.77
2018-12-17T03:47:08.944Z,115.63
2018-12-17T03:49:36.420Z,114.53
2018-12-17T03:52:03.961Z,129.77
2018-12-17T03:54:31.904Z,101.40
2018-12-17T03:57:00.175Z,117.13
2018-12-17T03:59:27.649Z,112.50
2018-12-17T04:01:55.151Z,117.67
2018-12-17T04:04:22.716Z,126.40
2018-12-17T04:06:50.198Z,111.83
2018-12-17T04:09:18.958Z,123.23
2018-12-17T04:11:46.455Z,126.20
2018-12-17T04:14:14.120Z,124.27
2018-12-17T04:16:41.611Z,122.23
2018-12-17T04:19:09.129Z,115.33
2018-12-17T04:21:36.646Z,111.50
2018-12-17T04:24:04.130Z,107.97
2018-12-17T04:26:31.602Z,110.73
2018-12-17T04:29:06.622Z,116.77
2018-12-17T04:31:28.903Z,111.97
2018-12-17T04:33:56.897Z,99.57
2018-12-17T04:36:24.394Z,104.27
2018-12-17T04:38:51.912Z,118.53
2018-12-17T04:41:19.526Z,106.33
2018-12-17T04:43:47.008Z,105.17
2018-12-17T04:46:14.569Z,104.97
2018-12-17T04:48:42.098Z,96.47
2018-12-17T04:51:09.858Z,83.57
2018-12-17T04:53:37.340Z,76.83
2018-12-17T04:56:04.896Z,81.60
2018-12-17T04:58:32.376Z,91.10
2018-12-17T05:00:59.915Z,94.10
2018-12-17T05:03:27.427Z,75.27
2018-12-17T05:05:54.934Z,77.17
2018-12-17T05:08:22.463Z,80.50
2018-12-17T05:10:49.946Z,84.77
2018-12-17T05:13:17.439Z,81.40
2018-12-17T05:15:45.529Z,81.07
2018-12-17T05:18:13.198Z,80.03
2018-12-17T05:20:40.662Z,84.43
2018-12-17T05:23:08.143Z,89.30
2018-12-17T05:25:35.712Z,89.10
2018-12-17T05:28:03.197Z,95.03
2018-12-17T05:30:30.784Z,87.63
2018-12-17T05:32:58.357Z,96.07
2018-12-17T05:35:25.834Z,90.90
2018-12-17T05:37:53.983Z,104.07
2018-12-17T05:40:21.504Z,103.33
2018-12-17T05:42:49.041Z,95.47
2018-12-17T05:45:17.570Z,94.23
2018-12-17T05:47:45.092Z,92.67
2018-12-17T05:50:12.587Z,101.57
2018-12-17T05:52:40.059Z,85.83
2018-12-17T05:55:07.661Z,92.07
2018-12-17T05:57:35.136Z,78.00
2018-12-17T06:00:02.626Z,88.30
2018-12-17T06:02:30.119Z,80.87
2018-12-17T06:05:00.224Z,71.30
2018-12-17T06:07:27.740Z,71.70
2018-12-17T06:09:55.246Z,84.47
2018-12-17T06:12:23.123Z,85.73
2018-12-17T06:14:50.592Z,87.10
2018-12-17T06:17:18.069Z,77.97
2018-12-17T06:19:45.589Z,83.57
2018-12-17T06:22:13.060Z,86.63
2018-12-17T06:24:40.543Z,95.13
2018-12-17T06:27:08.033Z,97.17
2018-12-17T06:29:35.778Z,98.43
2018-12-17T06:32:04.138Z,98.07
2018-12-17T06:34:31.655Z,88.20
2018-12-17T06:36:59.136Z,84.83
2018-12-17T06:39:26.631Z,87.90
2018-12-17T06:41:54.105Z,87.07
2018-12-17T06:44:21.599Z,79.97
2018-12-17T06:46:49.111Z,88.87
2018-12-17T06:49:16.601Z,88.43
2018-12-17T06:51:44.272Z,95.63
2018-12-17T06:54:11.742Z,85.83
2018-12-17T06:56:39.259Z,90.80
2018-12-17T06:59:06.783Z,80.47
2018-12-17T07:01:34.340Z,87.60
2018-12-17T07:04:01.854Z,82.67
2018-12-17T07:06:29.373Z,89.43
2018-12-17T07:08:56.858Z,88.67
2018-12-17T07:11:24.365Z,79.63
2018-12-17T07:13:51.868Z,93.70
2018-12-17T07:16:19.417Z,87.33
2018-12-17T07:18:46.995Z,85.00
2018-12-17T07:21:14.511Z,75.50
2018-12-17T07:23:41.996Z,81.83
2018-12-17T07:26:09.486Z,78.33
2018-12-17T07:28:37.042Z,82.43
2018-12-17T07:31:04.570Z,78.83
2018-12-17T07:33:32.041Z,81.10
2018-12-17T07:35:59.536Z,72.13
2018-12-17T07:38:27.485Z,70.37
2018-12-17T07:40:55.006Z,70.77
2018-12-17T07:43:22.483Z,73.10
2018-12-17T07:45:49.954Z,68.57
2018-12-17T07:48:17.431Z,64.97
2018-12-17T07:50:45.062Z,64.40
2018-12-17T07:53:12.540Z,58.30
2018-12-17T07:55:40.421Z,62.40
2018-12-17T07:58:07.886Z,65.40
2018-12-17T08:00:35.432Z,60.57
2018-12-17T08:03:02.903Z,60.87
2018-12-17T08:05:30.581Z,58.97
2018-12-17T08:07:58.092Z,61.97
2018-12-17T08:10:25.554Z,64.47
2018-12-17T08:12:53.046Z,69.40
2018-12-17T08:15:20.521Z,53.30
2018-12-17T08:17:49.955Z,58.97
2018-12-17T08:20:17.435Z,58.03
2018-12-17T08:22:44.909Z,51.57
2018-12-17T08:25:12.382Z,59.73
2018-12-17T08:27:39.876Z,55.07
2018-12-17T08:30:07.343Z,52.07
2018-12-17T08:32:34.826Z,47.03
2018-12-17T08:35:02.295Z,44.23
2018-12-17T08:37:29.778Z,44.53
2018-12-17T08:39:57.582Z,50.67
2018-12-17T08:42:25.254Z,47.73
2018-12-17T08:44:52.706Z,49.43
2018-12-17T08:47:20.201Z,51.00
2018-12-17T08:49:47.664Z,52.30
2018-12-17T08:52:15.173Z,56.40
2018-12-17T08:54:42.891Z,46.63
2018-12-17T08:57:10.371Z,41.80
2018-12-17T08:59:37.829Z,42.53
2018-12-17T09:02:05.321Z,40.77
2018-12-17T09:04:32.826Z,44.43
2018-12-17T09:07:00.282Z,44.00
2018-12-17T09:09:27.770Z,39.63
2018-12-17T09:11:55.251Z,38.37
2018-12-17T09:14:22.746Z,36.07
2018-12-17T09:16:50.382Z,32.93
2018-12-17T09:19:17.898Z,30.13
2018-12-17T09:21:45.370Z,32.07
2018-12-17T09:24:12.859Z,32.90
2018-12-17T09:26:40.377Z,32.30
2018-12-17T09:29:07.861Z,31.07
2018-12-17T09:31:35.322Z,29.23
2018-12-17T09:34:02.802Z,30.67
2018-12-17T09:36:30.292Z,31.40
2018-12-17T09:38:57.790Z,28.93
2018-12-17T09:44:08.435Z,32.90
2018-12-17T09:46:36.061Z,32.40
2018-12-17T09:49:03.609Z,31.57
2018-12-17T09:51:31.335Z,27.30
2018-12-17T09:53:58.875Z,29.77
2018-12-17T09:56:26.354Z,26.87
2018-12-17T09:58:53.855Z,29.23
2018-12-17T10:01:21.331Z,28.97
2018-12-17T10:03:48.853Z,24.17
2018-12-17T10:06:16.402Z,30.03
2018-12-17T10:08:43.894Z,32.20
2018-12-17T10:11:11.367Z,31.37
2018-12-17T10:13:38.894Z,28.07
2018-12-17T10:16:06.366Z,28.07
2018-12-17T10:18:36.822Z,27.63
2018-12-17T10:21:03.380Z,26.47
2018-12-17T10:23:30.840Z,29.30
2018-12-17T10:25:58.334Z,27.67
2018-12-17T10:28:25.802Z,28.87
2018-12-17T10:30:53.290Z,26.63
2018-12-17T10:33:20.801Z,26.10
2018-12-17T10:35:48.374Z,29.63
2018-12-17T10:38:15.890Z,32.60
2018-12-17T10:40:43.383Z,24.57
2018-12-17T10:43:10.875Z,26.80
2018-12-17T10:45:38.357Z,22.70
2018-12-17T10:48:05.834Z,20.20
2018-12-17T10:50:33.326Z,19.30
2018-12-17T10:53:00.821Z,23.27
2018-12-17T10:55:28.320Z,20.07
2018-12-17T10:57:55.801Z,18.60
2018-12-17T11:00:28.967Z,21.00
2018-12-17T11:02:57.796Z,24.67
2018-12-17T11:05:25.357Z,20.77
2018-12-17T11:07:52.820Z,19.67
2018-12-17T11:10:20.302Z,34.80
2018-12-17T11:12:47.784Z,34.60
2018-12-17T11:15:15.819Z,25.37
2018-12-17T11:17:44.697Z,21.47
2018-12-17T11:20:12.498Z,22.33
2018-12-17T11:22:39.971Z,20.93
2018-12-17T11:25:07.529Z,24.10
2018-12-17T11:27:35.002Z,21.07
2018-12-17T11:30:02.487Z,23.30
2018-12-17T11:32:30.003Z,25.17
2018-12-17T11:34:57.490Z,21.53
2018-12-17T11:37:24.975Z,19.03
2018-12-17T11:39:52.561Z,22.90
2018-12-17T11:42:20.824Z,18.13
2018-12-17T11:44:48.305Z,21.90
2018-12-17T11:47:15.828Z,18.50
2018-12-17T11:49:43.330Z,29.17
2018-12-17T11:52:10.834Z,24.47
2018-12-17T11:54:38.550Z,22.70
2018-12-17T12:00:11.844Z,28.43
2018-12-17T12:02:39.430Z,21.80
2018-12-17T12:05:07.067Z,25.73
2018-12-17T12:07:34.568Z,25.20
2018-12-17T12:10:02.075Z,27.23
2018-12-17T12:12:29.639Z,23.33
2018-12-17T12:14:57.609Z,28.87
2018-12-17T12:17:25.144Z,28.80
2018-12-17T12:19:52.786Z,26.90
2018-12-17T12:22:20.291Z,25.70
2018-12-17T12:24:48.226Z,23.97
2018-12-17T12:27:16.024Z,29.10
2018-12-17T12:29:44.113Z,24.50
2018-12-17T12:32:11.725Z,25.30
2018-12-17T12:34:39.319Z,25.07
2018-12-17T12:37:06.816Z,27.93
2018-12-17T12:39:34.298Z,30.77
2018-12-17T12:42:01.817Z,24.93
2018-12-17T12:44:29.291Z,25.67
2018-12-17T12:46:56.783Z,25.73
2018-12-17T12:49:24.366Z,18.37
2018-12-17T12:51:52.736Z,20.37
2018-12-17T12:54:20.499Z,25.43
2018-12-17T12:56:48.034Z,20.60
2018-12-17T12:59:15.505Z,18.93
2018-12-17T13:01:42.965Z,23.13
2018-12-17T13:04:10.738Z,28.67
2018-12-17T13:06:38.820Z,25.97
2018-12-17T13:09:07.212Z,19.87
2018-12-17T13:11:34.707Z,21.87
2018-12-17T13:14:02.281Z,17.77
2018-12-17T13:16:29.752Z,18.47
2018-12-17T13:18:57.237Z,22.43
2018-12-17T13:21:25.157Z,23.97
2018-12-17T13:23:52.632Z,19.67
2018-12-17T13:26:20.311Z,19.23
2018-12-17T13:28:47.867Z,16.10
2018-12-17T13:31:15.841Z,19.70
2018-12-17T13:33:43.388Z,18.90
2018-12-17T13:36:11.571Z,18.73
2018-12-17T13:38:39.138Z,18.90
2018-12-17T13:41:06.708Z,18.00
2018-12-17T13:43:34.348Z,19.67
2018-12-17T13:46:01.843Z,21.53
2018-12-17T13:48:29.447Z,17.10
2018-12-17T13:50:58.867Z,19.43
2018-12-17T13:53:32.468Z,16.73
2018-12-17T13:55:59.949Z,19.93
2018-12-17T13:58:27.587Z,18.23
2018-12-17T14:00:55.127Z,19.80
2018-12-17T14:03:22.623Z,20.57
2018-12-17T14:05:50.529Z,20.23
2018-12-17T14:08:18.139Z,16.87
2018-12-17T14:10:51.143Z,19.50
2018-12-17T14:13:18.683Z,19.23
2018-12-17T14:15:51.395Z,16.77
2018-12-17T14:18:25.496Z,20.37
2018-12-17T14:20:59.163Z,17.63
2018-12-17T14:23:26.671Z,23.37
2018-12-17T14:25:54.155Z,18.87
2018-12-17T14:28:21.754Z,22.13
2018-12-17T14:30:49.336Z,22.73
2018-12-17T14:33:16.936Z,23.57
2018-12-17T14:38:44.184Z,24.83
2018-12-17T14:41:11.711Z,24.07
2018-12-17T14:43:39.340Z,21.93
2018-12-17T14:46:06.925Z,24.33
2018-12-17T14:48:34.405Z,23.70
2018-12-17T14:51:01.902Z,25.57
2018-12-17T14:53:29.496Z,23.30
2018-12-17T14:55:57.016Z,23.40
2018-12-17T14:58:24.698Z,26.40
2018-12-17T15:00:52.238Z,19.73
2018-12-17T15:03:19.831Z,20.93
2018-12-17T15:05:47.325Z,23.00
2018-12-17T15:08:14.821Z,20.07
2018-12-17T15:10:42.409Z,24.27
2018-12-17T15:13:09.980Z,24.30
2018-12-17T15:15:37.543Z,30.40
2018-12-17T15:18:05.018Z,26.43
2018-12-17T15:20:32.516Z,30.77
2018-12-17T15:22:59.989Z,29.07
2018-12-17T15:25:27.520Z,29.00
2018-12-17T15:27:55.083Z,32.80
2018-12-17T15:30:22.660Z,38.00
2018-12-17T15:32:50.218Z,30.83
2018-12-17T15:35:17.799Z,35.43
2018-12-17T15:37:45.262Z,34.47
2018-12-17T15:40:12.815Z,36.17
2018-12-17T15:42:41.011Z,36.23
2018-12-17T15:45:08.781Z,35.10
2018-12-17T15:47:36.920Z,38.47
2018-12-17T15:50:04.608Z,38.57
2018-12-17T15:52:32.074Z,41.27
2018-12-17T15:54:59.556Z,37.00
2018-12-17T15:57:27.030Z,34.83
2018-12-17T15:59:54.511Z,37.40
2018-12-17T16:02:22.011Z,33.97
2018-12-17T16:04:50.365Z,36.90
2018-12-17T16:07:17.883Z,43.00
2018-12-17T16:09:45.367Z,46.77
2018-12-17T16:12:13.282Z,38.60
2018-12-17T16:14:40.787Z,49.43
2018-12-17T16:17:09.246Z,36.60
2018-12-17T16:19:36.821Z,42.33
2018-12-17T16:22:05.053Z,48.10
2018-12-17T16:24:32.535Z,42.70
2018-12-17T16:27:00.030Z,52.63
2018-12-17T16:29:27.514Z,51.40
2018-12-17T16:31:57.540Z,45.57
2018-12-17T16:34:24.498Z,43.70
2018-12-17T16:36:52.678Z,42.27
2018-12-17T16:39:20.147Z,53.03
2018-12-17T16:41:47.636Z,42.80
2018-12-17T16:44:15.181Z,51.83
2018-12-17T16:46:43.181Z,41.23
2018-12-17T16:49:10.975Z,40.40
2018-12-17T16:51:38.451Z,41.43
2018-12-17T16:54:06.028Z,43.90
2018-12-17T16:56:33.504Z,50.83
2018-12-17T16:59:00.980Z,43.30
2018-12-17T17:01:28.463Z,41.17
2018-12-17T17:03:55.967Z,48.70
2018-12-17T17:06:23.458Z,41.97
2018-12-17T17:08:51.497Z,43.27
2018-12-17T17:11:19.366Z,38.63
2018-12-17T17:13:46.923Z,42.17
2018-12-17T17:16:14.394Z,50.10
2018-12-17T17:18:41.898Z,40.80
2018-12-17T17:21:09.361Z,41.30
2018-12-17T17:23:36.933Z,42.50
2018-12-17T17:26:04.422Z,42.83
2018-12-17T17:28:31.947Z,37.97
2018-12-17T17:31:00.196Z,42.70
2018-12-17T17:33:27.691Z,39.63
2018-12-17T17:35:55.190Z,41.13
2018-12-17T17:38:22.718Z,47.63
2018-12-17T17:40:50.688Z,46.07
2018-12-17T17:43:18.230Z,42.83
2018-12-17T17:45:45.724Z,40.97
2018-12-17T17:48:13.219Z,44.43
2018-12-17T17:50:40.720Z,49.67
2018-12-17T17:53:08.194Z,51.03
2018-12-17T17:55:35.718Z,40.77
2018-12-17T17:58:03.199Z,41.67
2018-12-17T18:00:30.698Z,36.10
2018-12-17T18:02:58.191Z,38.20
2018-12-17T18:05:25.742Z,36.07
2018-12-17T18:07:53.927Z,37.40
2018-12-17T18:10:21.503Z,38.50
2018-12-17T18:12:48.975Z,36.20
2018-12-17T18:15:16.497Z,31.70
2018-12-17T18:17:44.562Z,35.17
2018-12-17T18:20:12.087Z,34.10
2018-12-17T18:22:39.659Z,29.40
2018-12-17T18:25:07.267Z,32.73
2018-12-17T18:27:36.191Z,30.63
2018-12-17T18:30:05.204Z,34.40
2018-12-17T18:32:32.661Z,32.10
2018-12-17T18:35:00.191Z,35.73
2018-12-17T18:37:27.670Z,31.20
2018-12-17T18:39:55.180Z,30.03
2018-12-17T18:42:22.653Z,34.83
2018-12-17T18:44:50.234Z,44.10
2018-12-17T18:47:17.723Z,36.80
2018-12-17T18:49:45.197Z,37.07
2018-12-17T18:52:12.729Z,36.93
2018-12-17T18:54:40.198Z,38.13
2018-12-17T18:57:07.711Z,34.23
2018-12-17T18:59:37.118Z,38.97
2018-12-17T19:02:04.643Z,41.60
2018-12-17T19:04:32.487Z,39.20
2018-12-17T19:07:00.935Z,38.33
2018-12-17T19:09:28.566Z,36.60
2018-12-17T19:11:56.154Z,36.37
2018-12-17T19:14:23.627Z,36.43
2018-12-17T19:16:51.120Z,36.13
2018-12-17T19:19:18.599Z,35.53
2018-12-17T19:21:46.127Z,38.27
2018-12-17T19:24:13.685Z,39.67
2018-12-17T19:26:41.208Z,41.80
2018-12-17T19:29:08.688Z,43.00
2018-12-17T19:31:36.225Z,44.10
2018-12-17T19:34:03.704Z,36.43
2018-12-17T19:36:31.197Z,37.80
2018-12-17T19:38:59.126Z,40.20
2018-12-17T19:41:26.641Z,37.90
2018-12-17T19:43:54.118Z,38.80
2018-12-17T19:46:21.605Z,37.77
2018-12-17T19:48:49.114Z,41.53
2018-12-17T19:51:16.580Z,49.03
2018-12-17T19:53:44.118Z,42.93
2018-12-17T19:56:12.263Z,44.20
2018-12-17T19:58:40.659Z,41.90
2018-12-17T20:01:08.168Z,38.83
2018-12-17T20:03:35.662Z,36.57
2018-12-17T20:06:03.141Z,40.33
2018-12-17T20:08:30.655Z,39.10
2018-12-17T20:10:58.202Z,38.43
2018-12-17T20:13:25.687Z,39.93
2018-12-17T20:15:53.179Z,40.97
2018-12-17T20:18:20.675Z,39.80
2018-12-17T20:20:48.159Z,38.00
2018-12-17T20:23:15.753Z,37.27
2018-12-17T20:25:43.221Z,40.73
2018-12-17T20:28:10.736Z,43.30
2018-12-17T20:30:38.262Z,38.77
2018-12-17T20:33:05.968Z,42.30
2018-12-17T20:35:33.453Z,39.50
2018-12-17T20:38:00.928Z,36.20
2018-12-17T20:40:28.427Z,44.07
2018-12-17T20:42:55.926Z,44.70
2018-12-17T20:45:23.515Z,41.17
2018-12-17T20:47:51.051Z,38.77
2018-12-17T20:50:18.520Z,43.00
2018-12-17T20:52:46.021Z,44.00
2018-12-17T20:55:13.505Z,39.67
2018-12-17T20:57:41.011Z,36.83
2018-12-17T21:00:08.527Z,37.87
2018-12-17T21:02:36.018Z,45.53
2018-12-17T21:05:04.939Z,36.47
2018-12-17T21:07:32.460Z,37.33
2018-12-17T21:09:59.934Z,44.33
2018-12-17T21:12:27.404Z,40.37
2018-12-17T21:14:54.908Z,46.30
2018-12-17T21:17:22.369Z,43.77
2018-12-17T21:19:49.876Z,38.53
2018-12-17T21:22:17.349Z,34.53
2018-12-17T21:24:44.846Z,41.40
2018-12-17T21:27:12.347Z,39.53
2018-12-17T21:29:39.846Z,37.73
2018-12-17T21:32:07.336Z,39.13
2018-12-17T21:34:34.838Z,37.33
2018-12-17T21:37:02.336Z,45.50
2018-12-17T21:39:29.858Z,42.23
2018-12-17T21:41:57.334Z,38.70
2018-12-17T21:44:24.818Z,38.30
2018-12-17T21:46:52.931Z,43.07
2018-12-17T21:49:20.508Z,37.97
2018-12-17T21:51:47.976Z,39.50
2018-12-17T21:54:15.567Z,37.83
2018-12-17T21:56:43.074Z,41.93
2018-12-17T21:59:10.614Z,36.30
2018-12-17T22:01:38.119Z,43.03
2018-12-17T22:04:05.582Z,38.70
2018-12-17T22:06:33.068Z,45.17
2018-12-17T22:09:00.551Z,39.67
2018-12-17T22:11:28.042Z,44.97
2018-12-17T22:13:55.515Z,44.53
2018-12-17T22:16:22.985Z,45.93
2018-12-17T22:18:50.463Z,47.17
2018-12-17T22:21:17.929Z,50.03
2018-12-17T22:23:45.533Z,46.87
2018-12-17T22:26:13.066Z,47.00
2018-12-17T22:28:46.282Z,48.70
2018-12-17T22:31:13.819Z,41.43
2018-12-17T22:33:41.295Z,41.57
2018-12-17T22:36:08.965Z,42.20
2018-12-17T22:38:36.668Z,39.83
2018-12-17T22:41:04.453Z,41.30
2018-12-17T22:43:32.145Z,39.37
2018-12-17T22:45:59.879Z,42.10
2018-12-17T22:48:27.524Z,39.83
2018-12-17T22:50:54.992Z,46.23
2018-12-17T22:53:22.468Z,41.97
2018-12-17T22:55:49.940Z,41.60
2018-12-17T22:58:17.439Z,38.07
2018-12-17T23:00:44.915Z,40.37
2018-12-17T23:03:12.427Z,43.43
2018-12-17T23:05:39.989Z,43.77
2018-12-17T23:08:07.494Z,47.10
2018-12-17T23:10:47.064Z,41.30
2018-12-17T23:13:26.644Z,40.27
2018-12-17T23:16:05.951Z,38.33
2018-12-17T23:18:33.098Z,38.33
2018-12-17T23:21:00.580Z,33.03
2018-12-17T23:23:28.077Z,33.97
2018-12-17T23:25:55.558Z,34.47
2018-12-17T23:28:23.220Z,33.20
2018-12-17T23:30:50.721Z,32.27
2018-12-17T23:33:18.245Z,30.83
2018-12-17T23:35:45.750Z,30.73
2018-12-17T23:38:13.233Z,27.77
2018-12-17T23:40:40.791Z,30.03
2018-12-17T23:43:08.349Z,32.53
2018-12-17T23:45:35.831Z,36.87
2018-12-17T23:48:03.367Z,34.17
2018-12-17T23:50:30.845Z,31.87
2018-12-17T23:52:58.345Z,29.43
2018-12-17T23:55:25.819Z,32.00
2018-12-17T23:57:53.313Z,35.03
